ICE28T BIRK-EGCC
Flight info
| Callsign | ICE28T |
|---|---|
| Flight time | N/A |
| Altitude | 37000 |
| Route | LUTER DCT MOXAL DCT RATSU/N0442F370 DCT BARKU DCT BRUCE DCT BLACA DCT MAKUX/N0397F250 L15 MALUD |
| Aircraft | B738/M-SABDFGRVYL/LB2 |
Departure
| Time | 2026-04-29 17:36 |
|---|---|
| Airport | Reykjavík Domestic Airport (BIRK) |
Arrival
| Time | N/A |
|---|---|
| Airport | Manchester Airport (EGCC) |
| Time | Latitude | Longitude | Altitude | Speed | Heading |
|---|---|---|---|---|---|
| 2026-04-29 17:29 | 63.99427 | -22.61997 | 142 ft | 1 kts | 178° |
| 2026-04-29 17:31 | 63.99373 | -22.61997 | 142 ft | 11 kts | 179° |
| 2026-04-29 17:32 | 63.99296 | -22.61996 | 142 ft | 11 kts | 179° |
| 2026-04-29 17:32 | 63.99221 | -22.61998 | 142 ft | 10 kts | 180° |
| 2026-04-29 17:32 | 63.99176 | -22.61913 | 142 ft | 9 kts | 98° |
| 2026-04-29 17:32 | 63.99173 | -22.61773 | 142 ft | 8 kts | 90° |
| 2026-04-29 17:33 | 63.99173 | -22.61633 | 142 ft | 8 kts | 89° |
| 2026-04-29 17:33 | 63.99174 | -22.61493 | 142 ft | 9 kts | 89° |
| 2026-04-29 17:33 | 63.99173 | -22.61281 | 143 ft | 14 kts | 90° |
| 2026-04-29 17:33 | 63.99172 | -22.61082 | 145 ft | 11 kts | 90° |
| 2026-04-29 17:34 | 63.99168 | -22.60913 | 146 ft | 10 kts | 87° |
| 2026-04-29 17:34 | 63.99173 | -22.60758 | 146 ft | 9 kts | 86° |
| 2026-04-29 17:34 | 63.99171 | -22.60610 | 146 ft | 8 kts | 113° |
| 2026-04-29 17:34 | 63.99133 | -22.60557 | 146 ft | 5 kts | 170° |
| 2026-04-29 17:35 | 63.99112 | -22.60553 | 147 ft | 6 kts | 175° |
| 2026-04-29 17:35 | 63.98611 | -22.60564 | 155 ft | 98 kts | 180° |
| 2026-04-29 17:35 | 63.97742 | -22.60551 | 176 ft | 149 kts | 184° |
| 2026-04-29 17:36 | 63.96739 | -22.60557 | 940 ft | 143 kts | 185° |
| 2026-04-29 17:36 | 63.95776 | -22.60593 | 1671 ft | 143 kts | 187° |
| 2026-04-29 17:36 | 63.94746 | -22.60217 | 2023 ft | 168 kts | 158° |
| 2026-04-29 17:36 | 63.93970 | -22.57988 | 2383 ft | 199 kts | 118° |
| 2026-04-29 17:37 | 63.93536 | -22.54912 | 2785 ft | 208 kts | 119° |
| 2026-04-29 17:37 | 63.92758 | -22.52302 | 3217 ft | 203 kts | 145° |
| 2026-04-29 17:37 | 63.91645 | -22.50186 | 3576 ft | 215 kts | 146° |
| 2026-04-29 17:37 | 63.90528 | -22.47819 | 3933 ft | 231 kts | 141° |
| 2026-04-29 17:38 | 63.89383 | -22.45099 | 4418 ft | 244 kts | 139° |
| 2026-04-29 17:38 | 63.88235 | -22.42276 | 5104 ft | 248 kts | 139° |
| 2026-04-29 17:38 | 63.87039 | -22.39355 | 5669 ft | 257 kts | 139° |
| 2026-04-29 17:38 | 63.85810 | -22.36383 | 6343 ft | 262 kts | 139° |
| 2026-04-29 17:39 | 63.84564 | -22.33383 | 6912 ft | 265 kts | 141° |
| 2026-04-29 17:39 | 63.83301 | -22.30350 | 7030 ft | 271 kts | 140° |
| 2026-04-29 17:39 | 63.81979 | -22.27188 | 7675 ft | 276 kts | 141° |
| 2026-04-29 17:39 | 63.80701 | -22.24112 | 8604 ft | 271 kts | 141° |
| 2026-04-29 17:40 | 63.79409 | -22.21025 | 9309 ft | 276 kts | 142° |
| 2026-04-29 17:40 | 63.78081 | -22.17867 | 9817 ft | 279 kts | 142° |
| 2026-04-29 17:40 | 63.76740 | -22.14673 | 9923 ft | 281 kts | 142° |
| 2026-04-29 17:40 | 63.75404 | -22.11481 | 9928 ft | 277 kts | 142° |
| 2026-04-29 17:41 | 63.74081 | -22.08326 | 9931 ft | 278 kts | 143° |
| 2026-04-29 17:41 | 63.72762 | -22.05185 | 9931 ft | 280 kts | 142° |
| 2026-04-29 17:41 | 63.71511 | -22.01791 | 9930 ft | 284 kts | 136° |
| 2026-04-29 17:41 | 63.70369 | -21.98134 | 9935 ft | 287 kts | 133° |
| 2026-04-29 17:42 | 63.69265 | -21.94379 | 9941 ft | 288 kts | 133° |
| 2026-04-29 17:42 | 63.68164 | -21.90610 | 9941 ft | 289 kts | 133° |
| 2026-04-29 17:42 | 63.67049 | -21.86863 | 9938 ft | 288 kts | 133° |
| 2026-04-29 17:42 | 63.65925 | -21.83149 | 9942 ft | 285 kts | 133° |
| 2026-04-29 17:43 | 63.64796 | -21.79466 | 9942 ft | 286 kts | 134° |
| 2026-04-29 17:43 | 63.63666 | -21.75807 | 9946 ft | 287 kts | 134° |
| 2026-04-29 17:43 | 63.62519 | -21.72096 | 9946 ft | 286 kts | 134° |
| 2026-04-29 17:43 | 63.61394 | -21.68448 | 9951 ft | 288 kts | 134° |
| 2026-04-29 17:44 | 63.60210 | -21.64661 | 10172 ft | 309 kts | 134° |
| 2026-04-29 17:44 | 63.58940 | -21.60609 | 10597 ft | 324 kts | 133° |
| 2026-04-29 17:44 | 63.57626 | -21.56404 | 11033 ft | 339 kts | 133° |
| 2026-04-29 17:44 | 63.56260 | -21.52005 | 11682 ft | 346 kts | 133° |
| 2026-04-29 17:45 | 63.54881 | -21.47557 | 11940 ft | 350 kts | 133° |
| 2026-04-29 17:45 | 63.53507 | -21.43107 | 11952 ft | 346 kts | 133° |
| 2026-04-29 17:45 | 63.52143 | -21.38699 | 11952 ft | 345 kts | 133° |
| 2026-04-29 17:45 | 63.50753 | -21.34260 | 12260 ft | 358 kts | 134° |
| 2026-04-29 17:46 | 63.49359 | -21.29799 | 13329 ft | 352 kts | 135° |
| 2026-04-29 17:46 | 63.47959 | -21.25329 | 14197 ft | 353 kts | 135° |
| 2026-04-29 17:46 | 63.46536 | -21.20819 | 14917 ft | 359 kts | 135° |
| 2026-04-29 17:46 | 63.45109 | -21.16313 | 15738 ft | 361 kts | 136° |